sensor_id;sensor_type;location;lat;lon;timestamp;pressure;altitude;pressure_sealevel;temperature;humidity
35519;BME280;21627;48.216;16.482;2023-03-01T00:01:34;100884.81;;;-1.89;96.78
35519;BME280;21627;48.216;16.482;2023-03-01T00:04:01;100886.47;;;-1.90;96.90
35519;BME280;21627;48.216;16.482;2023-03-01T00:06:28;100893.31;;;-1.89;96.97
35519;BME280;21627;48.216;16.482;2023-03-01T00:08:59;100894.19;;;-1.88;97.39
35519;BME280;21627;48.216;16.482;2023-03-01T00:11:31;100890.66;;;-1.90;97.09
35519;BME280;21627;48.216;16.482;2023-03-01T00:14:02;100892.31;;;-1.91;97.19
35519;BME280;21627;48.216;16.482;2023-03-01T00:16:35;100882.88;;;-1.93;97.50
35519;BME280;21627;48.216;16.482;2023-03-01T00:19:07;100887.34;;;-1.89;97.34
35519;BME280;21627;48.216;16.482;2023-03-01T00:21:35;100881.41;;;-1.90;97.48
35519;BME280;21627;48.216;16.482;2023-03-01T00:24:02;100870.63;;;-1.99;97.78
35519;BME280;21627;48.216;16.482;2023-03-01T00:26:30;100887.16;;;-1.92;97.43
35519;BME280;21627;48.216;16.482;2023-03-01T00:28:58;100893.19;;;-1.90;97.49
35519;BME280;21627;48.216;16.482;2023-03-01T00:31:29;100891.47;;;-1.91;97.62
35519;BME280;21627;48.216;16.482;2023-03-01T00:34:03;100881.44;;;-2.02;97.56
35519;BME280;21627;48.216;16.482;2023-03-01T00:36:35;100886.75;;;-1.99;97.47
35519;BME280;21627;48.216;16.482;2023-03-01T00:39:13;100875.97;;;-2.08;97.58
35519;BME280;21627;48.216;16.482;2023-03-01T00:41:44;100877.72;;;-2.07;97.73
35519;BME280;21627;48.216;16.482;2023-03-01T00:44:15;100861.13;;;-2.15;97.65
35519;BME280;21627;48.216;16.482;2023-03-01T00:46:42;100882.56;;;-2.10;97.87
35519;BME280;21627;48.216;16.482;2023-03-01T00:49:09;100843.44;;;-2.27;98.44
35519;BME280;21627;48.216;16.482;2023-03-01T00:51:36;100874.88;;;-2.11;98.58
35519;BME280;21627;48.216;16.482;2023-03-01T00:54:10;100874.66;;;-2.14;98.74
35519;BME280;21627;48.216;16.482;2023-03-01T00:56:37;100862.88;;;-2.14;98.87
35519;BME280;21627;48.216;16.482;2023-03-01T00:59:04;100868.72;;;-2.15;98.82
35519;BME280;21627;48.216;16.482;2023-03-01T01:01:32;100858.38;;;-2.18;98.86
35519;BME280;21627;48.216;16.482;2023-03-01T01:04:06;100861.69;;;-2.19;99.30
35519;BME280;21627;48.216;16.482;2023-03-01T01:06:43;100872.78;;;-2.17;99.48
35519;BME280;21627;48.216;16.482;2023-03-01T01:09:13;100840.91;;;-2.27;99.49
35519;BME280;21627;48.216;16.482;2023-03-01T01:11:46;100855.13;;;-2.29;99.78
35519;BME280;21627;48.216;16.482;2023-03-01T01:14:15;100867.31;;;-2.23;100.00
35519;BME280;21627;48.216;16.482;2023-03-01T01:16:43;100865.78;;;-2.21;99.81
35519;BME280;21627;48.216;16.482;2023-03-01T01:19:13;100856.50;;;-2.21;100.00
35519;BME280;21627;48.216;16.482;2023-03-01T01:21:41;100858.25;;;-2.20;100.00
35519;BME280;21627;48.216;16.482;2023-03-01T01:24:11;100860.03;;;-2.19;100.00
35519;BME280;21627;48.216;16.482;2023-03-01T01:26:38;100853.31;;;-2.18;100.00
35519;BME280;21627;48.216;16.482;2023-03-01T01:29:06;100854.19;;;-2.18;100.00
35519;BME280;21627;48.216;16.482;2023-03-01T01:31:35;100850.09;;;-2.15;100.00
35519;BME280;21627;48.216;16.482;2023-03-01T01:34:05;100847.56;;;-2.15;100.00
35519;BME280;21627;48.216;16.482;2023-03-01T01:36:34;100847.56;;;-2.15;100.00
35519;BME280;21627;48.216;16.482;2023-03-01T01:39:01;100846.09;;;-2.12;100.00
35519;BME280;21627;48.216;16.482;2023-03-01T01:41:29;100841.72;;;-2.14;100.00
35519;BME280;21627;48.216;16.482;2023-03-01T01:44:23;100843.91;;;-2.07;100.00
35519;BME280;21627;48.216;16.482;2023-03-01T01:52:24;100827.66;;;-1.98;100.00
35519;BME280;21627;48.216;16.482;2023-03-01T01:57:45;100831.59;;;-1.89;100.00
35519;BME280;21627;48.216;16.482;2023-03-01T02:00:21;100827.31;;;-1.90;100.00
35519;BME280;21627;48.216;16.482;2023-03-01T02:02:54;100829.56;;;-1.82;100.00
35519;BME280;21627;48.216;16.482;2023-03-01T02:05:46;100827.53;;;-1.74;100.00
35519;BME280;21627;48.216;16.482;2023-03-01T02:08:25;100823.56;;;-1.70;100.00
35519;BME280;21627;48.216;16.482;2023-03-01T02:10:55;100824.75;;;-1.65;100.00
35519;BME280;21627;48.216;16.482;2023-03-01T02:13:23;100797.03;;;-1.76;100.00
35519;BME280;21627;48.216;16.482;2023-03-01T02:15:50;100786.28;;;-1.71;100.00
35519;BME280;21627;48.216;16.482;2023-03-01T02:18:20;100819.50;;;-1.55;100.00
35519;BME280;21627;48.216;16.482;2023-03-01T02:23:40;100803.28;;;-1.57;100.00
35519;BME280;21627;48.216;16.482;2023-03-01T02:26:28;100824.56;;;-1.42;100.00
35519;BME280;21627;48.216;16.482;2023-03-01T02:29:00;100823.81;;;-1.41;100.00
35519;BME280;21627;48.216;16.482;2023-03-01T02:31:31;100821.28;;;-1.41;100.00
35519;BME280;21627;48.216;16.482;2023-03-01T02:34:21;100817.16;;;-1.39;100.00
35519;BME280;21627;48.216;16.482;2023-03-01T02:36:59;100819.69;;;-1.39;100.00
35519;BME280;21627;48.216;16.482;2023-03-01T02:39:46;100807.81;;;-1.40;100.00
35519;BME280;21627;48.216;16.482;2023-03-01T02:42:21;100818.34;;;-1.34;100.00
35519;BME280;21627;48.216;16.482;2023-03-01T02:44:53;100794.13;;;-1.42;100.00
35519;BME280;21627;48.216;16.482;2023-03-01T02:47:20;100811.94;;;-1.28;100.00
35519;BME280;21627;48.216;16.482;2023-03-01T02:49:51;100807.03;;;-1.25;100.00
35519;BME280;21627;48.216;16.482;2023-03-01T02:55:11;100796.91;;;-1.25;100.00
35519;BME280;21627;48.216;16.482;2023-03-01T02:57:43;100806.66;;;-1.18;100.00
35519;BME280;21627;48.216;16.482;2023-03-01T03:00:38;100810.63;;;-1.09;100.00
35519;BME280;21627;48.216;16.482;2023-03-01T03:03:07;100799.63;;;-1.09;100.00
35519;BME280;21627;48.216;16.482;2023-03-01T03:05:34;100805.78;;;-1.05;100.00
35519;BME280;21627;48.216;16.482;2023-03-01T03:08:03;100802.63;;;-1.01;100.00
35519;BME280;21627;48.216;16.482;2023-03-01T03:10:34;100807.03;;;-0.99;100.00
35519;BME280;21627;48.216;16.482;2023-03-01T03:13:09;100781.28;;;-1.05;100.00
35519;BME280;21627;48.216;16.482;2023-03-01T03:15:38;100793.94;;;-0.92;100.00
35519;BME280;21627;48.216;16.482;2023-03-01T03:18:12;100798.44;;;-0.88;100.00
35519;BME280;21627;48.216;16.482;2023-03-01T03:20:41;100792.69;;;-0.85;99.88
35519;BME280;21627;48.216;16.482;2023-03-01T03:23:10;100791.19;;;-0.81;98.96
35519;BME280;21627;48.216;16.482;2023-03-01T03:25:37;100796.44;;;-0.78;99.36
35519;BME280;21627;48.216;16.482;2023-03-01T03:28:06;100786.41;;;-0.77;99.16
35519;BME280;21627;48.216;16.482;2023-03-01T03:30:40;100782.00;;;-0.79;99.28
35519;BME280;21627;48.216;16.482;2023-03-01T03:33:10;100786.69;;;-0.72;98.81
35519;BME280;21627;48.216;16.482;2023-03-01T03:35:45;100780.06;;;-0.70;98.57
35519;BME280;21627;48.216;16.482;2023-03-01T03:38:15;100768.75;;;-0.75;98.42
35519;BME280;21627;48.216;16.482;2023-03-01T03:41:00;100777.22;;;-0.75;98.76
35519;BME280;21627;48.216;16.482;2023-03-01T03:43:32;100783.28;;;-0.73;99.26
35519;BME280;21627;48.216;16.482;2023-03-01T03:46:03;100786.19;;;-0.67;98.46
35519;BME280;21627;48.216;16.482;2023-03-01T03:48:36;100791.25;;;-0.67;98.48
35519;BME280;21627;48.216;16.482;2023-03-01T03:51:05;100778.38;;;-0.70;98.87
35519;BME280;21627;48.216;16.482;2023-03-01T03:53:32;100776.03;;;-0.67;98.64
35519;BME280;21627;48.216;16.482;2023-03-01T03:56:00;100787.53;;;-0.58;98.14
35519;BME280;21627;48.216;16.482;2023-03-01T03:58:28;100764.03;;;-0.69;97.94
35519;BME280;21627;48.216;16.482;2023-03-01T04:00:59;100770.25;;;-0.64;97.78
35519;BME280;21627;48.216;16.482;2023-03-01T04:03:31;100757.97;;;-0.71;97.67
35519;BME280;21627;48.216;16.482;2023-03-01T04:06:00;100779.22;;;-0.56;97.24
35519;BME280;21627;48.216;16.482;2023-03-01T04:08:28;100776.78;;;-0.54;97.22
35519;BME280;21627;48.216;16.482;2023-03-01T04:11:01;100788.00;;;-0.51;97.27
35519;BME280;21627;48.216;16.482;2023-03-01T04:13:50;100786.25;;;-0.52;97.62
35519;BME280;21627;48.216;16.482;2023-03-01T04:16:18;100771.81;;;-0.53;97.67
35519;BME280;21627;48.216;16.482;2023-03-01T04:18:48;100772.75;;;-0.51;97.64
35519;BME280;21627;48.216;16.482;2023-03-01T04:21:16;100773.66;;;-0.50;97.83
35519;BME280;21627;48.216;16.482;2023-03-01T04:23:43;100766.50;;;-0.56;98.08
35519;BME280;21627;48.216;16.482;2023-03-01T04:26:11;100779.59;;;-0.50;98.14
35519;BME280;21627;48.216;16.482;2023-03-01T04:28:41;100781.44;;;-0.47;98.19
35519;BME280;21627;48.216;16.482;2023-03-01T04:31:19;100778.22;;;-0.45;98.02
35519;BME280;21627;48.216;16.482;2023-03-01T04:33:52;100783.84;;;-0.35;96.43
35519;BME280;21627;48.216;16.482;2023-03-01T04:36:27;100784.34;;;-0.41;96.34
35519;BME280;21627;48.216;16.482;2023-03-01T04:38:56;100786.59;;;-0.46;96.98
35519;BME280;21627;48.216;16.482;2023-03-01T04:41:24;100789.34;;;-0.42;97.11
35519;BME280;21627;48.216;16.482;2023-03-01T04:43:58;100781.63;;;-0.44;97.32
35519;BME280;21627;48.216;16.482;2023-03-01T04:46:27;100780.34;;;-0.37;97.39
35519;BME280;21627;48.216;16.482;2023-03-01T04:48:54;100771.81;;;-0.38;96.29
35519;BME280;21627;48.216;16.482;2023-03-01T04:51:21;100783.16;;;-0.33;96.46
35519;BME280;21627;48.216;16.482;2023-03-01T04:53:49;100765.78;;;-0.40;97.17
35519;BME280;21627;48.216;16.482;2023-03-01T04:56:16;100779.66;;;-0.35;97.30
35519;BME280;21627;48.216;16.482;2023-03-01T04:58:46;100784.03;;;-0.32;97.04
35519;BME280;21627;48.216;16.482;2023-03-01T05:01:19;100773.78;;;-0.34;96.64
35519;BME280;21627;48.216;16.482;2023-03-01T05:03:50;100790.16;;;-0.29;96.85
35519;BME280;21627;48.216;16.482;2023-03-01T05:06:19;100786.66;;;-0.31;97.26
35519;BME280;21627;48.216;16.482;2023-03-01T05:08:47;100788.25;;;-0.33;96.67
35519;BME280;21627;48.216;16.482;2023-03-01T05:11:14;100783.53;;;-0.27;96.61
35519;BME280;21627;48.216;16.482;2023-03-01T05:13:41;100780.81;;;-0.30;96.39
35519;BME280;21627;48.216;16.482;2023-03-01T05:16:10;100790.97;;;-0.30;96.36
35519;BME280;21627;48.216;16.482;2023-03-01T05:18:39;100788.31;;;-0.31;96.75
35519;BME280;21627;48.216;16.482;2023-03-01T05:21:11;100790.88;;;-0.31;96.45
35519;BME280;21627;48.216;16.482;2023-03-01T05:23:39;100783.25;;;-0.31;96.44
35519;BME280;21627;48.216;16.482;2023-03-01T05:26:07;100781.97;;;-0.25;96.07
35519;BME280;21627;48.216;16.482;2023-03-01T05:28:51;100793.09;;;-0.23;95.63
35519;BME280;21627;48.216;16.482;2023-03-01T05:31:19;100794.56;;;-0.26;95.56
35519;BME280;21627;48.216;16.482;2023-03-01T05:33:46;100784.91;;;-0.32;95.91
35519;BME280;21627;48.216;16.482;2023-03-01T05:36:13;100787.81;;;-0.26;95.61
35519;BME280;21627;48.216;16.482;2023-03-01T05:38:40;100794.16;;;-0.19;94.71
35519;BME280;21627;48.216;16.482;2023-03-01T05:41:15;100800.78;;;-0.21;95.45
35519;BME280;21627;48.216;16.482;2023-03-01T05:43:43;100799.13;;;-0.20;95.93
35519;BME280;21627;48.216;16.482;2023-03-01T05:46:12;100806.16;;;-0.16;95.75
35519;BME280;21627;48.216;16.482;2023-03-01T05:48:42;100801.88;;;-0.17;95.61
35519;BME280;21627;48.216;16.482;2023-03-01T05:51:09;100792.13;;;-0.25;95.18
35519;BME280;21627;48.216;16.482;2023-03-01T05:53:36;100811.94;;;-0.19;95.12
35519;BME280;21627;48.216;16.482;2023-03-01T05:56:04;100814.47;;;-0.19;95.60
35519;BME280;21627;48.216;16.482;2023-03-01T05:58:32;100809.91;;;-0.25;95.37
35519;BME280;21627;48.216;16.482;2023-03-01T06:01:00;100816.22;;;-0.18;95.29
35519;BME280;21627;48.216;16.482;2023-03-01T06:03:30;100814.66;;;-0.16;94.69
35519;BME280;21627;48.216;16.482;2023-03-01T06:05:57;100817.81;;;-0.05;94.64
35519;BME280;21627;48.216;16.482;2023-03-01T06:08:25;100805.34;;;-0.15;94.53
35519;BME280;21627;48.216;16.482;2023-03-01T06:10:54;100816.09;;;-0.06;94.41
35519;BME280;21627;48.216;16.482;2023-03-01T06:13:23;100816.38;;;-0.02;94.65
35519;BME280;21627;48.216;16.482;2023-03-01T06:15:50;100817.34;;;0.01;94.00
35519;BME280;21627;48.216;16.482;2023-03-01T06:18:18;100814.81;;;0.01;93.69
35519;BME280;21627;48.216;16.482;2023-03-01T06:20:53;100813.03;;;-0.01;94.25
35519;BME280;21627;48.216;16.482;2023-03-01T06:23:22;100808.84;;;0.00;93.56
35519;BME280;21627;48.216;16.482;2023-03-01T06:25:51;100803.75;;;0.00;93.55
35519;BME280;21627;48.216;16.482;2023-03-01T06:28:19;100806.75;;;0.08;93.40
35519;BME280;21627;48.216;16.482;2023-03-01T06:30:46;100809.28;;;0.08;92.77
35519;BME280;21627;48.216;16.482;2023-03-01T06:33:13;100806.81;;;0.09;93.31
35519;BME280;21627;48.216;16.482;2023-03-01T06:35:40;100805.16;;;0.10;93.20
35519;BME280;21627;48.216;16.482;2023-03-01T06:38:08;100806.94;;;0.11;93.84
35519;BME280;21627;48.216;16.482;2023-03-01T06:40:36;100822.81;;;0.21;93.35
35519;BME280;21627;48.216;16.482;2023-03-01T06:43:03;100810.78;;;0.19;92.63
35519;BME280;21627;48.216;16.482;2023-03-01T06:45:30;100821.31;;;0.25;92.51
35519;BME280;21627;48.216;16.482;2023-03-01T06:48:05;100821.13;;;0.22;92.75
35519;BME280;21627;48.216;16.482;2023-03-01T06:50:37;100832.81;;;0.33;92.13
35519;BME280;21627;48.216;16.482;2023-03-01T06:53:04;100824.50;;;0.36;92.65
35519;BME280;21627;48.216;16.482;2023-03-01T06:55:33;100836.84;;;0.45;91.87
35519;BME280;21627;48.216;16.482;2023-03-01T06:58:02;100831.00;;;0.46;91.84
35519;BME280;21627;48.216;16.482;2023-03-01T07:00:31;100824.94;;;0.43;91.70
35519;BME280;21627;48.216;16.482;2023-03-01T07:03:00;100832.03;;;0.49;91.73
35519;BME280;21627;48.216;16.482;2023-03-01T07:05:30;100830.38;;;0.50;91.00
35519;BME280;21627;48.216;16.482;2023-03-01T07:07:57;100812.50;;;0.48;91.32
35519;BME280;21627;48.216;16.482;2023-03-01T07:10:24;100816.25;;;0.55;90.96
35519;BME280;21627;48.216;16.482;2023-03-01T07:12:58;100824.03;;;0.58;91.35
35519;BME280;21627;48.216;16.482;2023-03-01T07:15:26;100805.34;;;0.57;91.29
35519;BME280;21627;48.216;16.482;2023-03-01T07:17:55;100793.78;;;0.62;90.66
35519;BME280;21627;48.216;16.482;2023-03-01T07:20:31;100796.69;;;0.69;90.42
35519;BME280;21627;48.216;16.482;2023-03-01T07:23:06;100802.97;;;0.75;88.85
35519;BME280;21627;48.216;16.482;2023-03-01T07:25:33;100812.16;;;0.88;88.35
35519;BME280;21627;48.216;16.482;2023-03-01T07:28:04;100779.91;;;0.72;86.93
35519;BME280;21627;48.216;16.482;2023-03-01T07:30:31;100818.22;;;0.90;87.79
35519;BME280;21627;48.216;16.482;2023-03-01T07:32:59;100802.47;;;0.81;87.52
35519;BME280;21627;48.216;16.482;2023-03-01T07:35:27;100799.63;;;0.91;86.33
35519;BME280;21627;48.216;16.482;2023-03-01T07:37:54;100819.56;;;0.98;86.14
35519;BME280;21627;48.216;16.482;2023-03-01T07:40:24;100814.47;;;0.98;86.35
35519;BME280;21627;48.216;16.482;2023-03-01T07:42:58;100802.38;;;1.11;85.94
35519;BME280;21627;48.216;16.482;2023-03-01T07:45:26;100803.84;;;1.22;85.13
35519;BME280;21627;48.216;16.482;2023-03-01T07:47:54;100794.38;;;1.19;85.49
35519;BME280;21627;48.216;16.482;2023-03-01T07:50:22;100807.69;;;1.30;86.38
35519;BME280;21627;48.216;16.482;2023-03-01T07:52:50;100806.34;;;1.37;85.86
35519;BME280;21627;48.216;16.482;2023-03-01T07:55:18;100790.66;;;1.29;84.44
35519;BME280;21627;48.216;16.482;2023-03-01T07:57:46;100811.31;;;1.50;83.13
35519;BME280;21627;48.216;16.482;2023-03-01T08:00:13;100811.00;;;1.60;83.05
35519;BME280;21627;48.216;16.482;2023-03-01T08:02:41;100813.66;;;1.62;81.63
35519;BME280;21627;48.216;16.482;2023-03-01T08:05:09;100817.31;;;1.67;81.46
35519;BME280;21627;48.216;16.482;2023-03-01T08:07:37;100802.97;;;1.69;80.18
35519;BME280;21627;48.216;16.482;2023-03-01T08:10:09;100807.66;;;1.78;79.64
35519;BME280;21627;48.216;16.482;2023-03-01T08:12:39;100816.03;;;1.91;78.59
35519;BME280;21627;48.216;16.482;2023-03-01T08:15:08;100815.06;;;2.06;78.66
35519;BME280;21627;48.216;16.482;2023-03-01T08:17:35;100801.75;;;2.11;77.50
35519;BME280;21627;48.216;16.482;2023-03-01T08:20:06;100806.69;;;2.25;76.47
35519;BME280;21627;48.216;16.482;2023-03-01T08:22:37;100800.47;;;2.20;77.03
35519;BME280;21627;48.216;16.482;2023-03-01T08:25:05;100800.84;;;2.27;76.31
35519;BME280;21627;48.216;16.482;2023-03-01T08:27:32;100798.22;;;2.26;76.90
35519;BME280;21627;48.216;16.482;2023-03-01T08:29:59;100814.97;;;2.37;77.12
35519;BME280;21627;48.216;16.482;2023-03-01T08:32:29;100820.25;;;2.42;75.49
35519;BME280;21627;48.216;16.482;2023-03-01T08:35:00;100802.63;;;2.46;74.76
35519;BME280;21627;48.216;16.482;2023-03-01T08:37:27;100805.72;;;2.57;75.65
35519;BME280;21627;48.216;16.482;2023-03-01T08:39:58;100804.44;;;2.65;76.76
35519;BME280;21627;48.216;16.482;2023-03-01T08:42:26;100812.59;;;2.76;76.82
35519;BME280;21627;48.216;16.482;2023-03-01T08:44:53;100808.13;;;2.90;75.64
35519;BME280;21627;48.216;16.482;2023-03-01T08:47:21;100802.97;;;3.06;75.38
35519;BME280;21627;48.216;16.482;2023-03-01T08:49:50;100799.53;;;3.23;73.18
35519;BME280;21627;48.216;16.482;2023-03-01T08:52:18;100792.00;;;3.27;72.71
35519;BME280;21627;48.216;16.482;2023-03-01T08:54:48;100792.81;;;3.45;72.37
35519;BME280;21627;48.216;16.482;2023-03-01T08:57:25;100765.25;;;3.38;72.48
35519;BME280;21627;48.216;16.482;2023-03-01T08:59:52;100791.31;;;3.68;72.28
35519;BME280;21627;48.216;16.482;2023-03-01T09:02:19;100779.03;;;3.80;69.08
35519;BME280;21627;48.216;16.482;2023-03-01T09:04:47;100781.88;;;3.86;69.80
35519;BME280;21627;48.216;16.482;2023-03-01T09:07:15;100768.47;;;3.92;70.86
35519;BME280;21627;48.216;16.482;2023-03-01T09:09:42;100776.19;;;4.13;68.90
35519;BME280;21627;48.216;16.482;2023-03-01T09:12:09;100769.97;;;4.27;70.06
35519;BME280;21627;48.216;16.482;2023-03-01T09:14:36;100765.59;;;4.46;67.94
35519;BME280;21627;48.216;16.482;2023-03-01T09:17:05;100744.63;;;4.33;68.26
35519;BME280;21627;48.216;16.482;2023-03-01T09:19:32;100744.06;;;4.41;68.07
35519;BME280;21627;48.216;16.482;2023-03-01T09:21:59;100750.81;;;4.39;68.63
35519;BME280;21627;48.216;16.482;2023-03-01T09:24:27;100747.88;;;4.50;66.70
35519;BME280;21627;48.216;16.482;2023-03-01T09:26:56;100745.00;;;4.64;66.53
35519;BME280;21627;48.216;16.482;2023-03-01T09:29:24;100739.13;;;4.66;68.09
35519;BME280;21627;48.216;16.482;2023-03-01T09:31:51;100746.59;;;4.83;68.16
35519;BME280;21627;48.216;16.482;2023-03-01T09:34:25;100742.16;;;5.01;66.55
35519;BME280;21627;48.216;16.482;2023-03-01T09:36:52;100743.16;;;5.05;65.08
35519;BME280;21627;48.216;16.482;2023-03-01T09:39:20;100746.03;;;5.12;63.98
35519;BME280;21627;48.216;16.482;2023-03-01T09:42:01;100748.22;;;5.26;62.84
35519;BME280;21627;48.216;16.482;2023-03-01T09:45:00;100735.31;;;5.23;65.26
35519;BME280;21627;48.216;16.482;2023-03-01T09:47:34;100739.94;;;5.33;64.71
35519;BME280;21627;48.216;16.482;2023-03-01T09:50:13;100735.38;;;5.48;61.48
35519;BME280;21627;48.216;16.482;2023-03-01T09:55:17;100729.13;;;5.41;61.90
35519;BME280;21627;48.216;16.482;2023-03-01T09:57:56;100728.34;;;5.42;62.02
35519;BME280;21627;48.216;16.482;2023-03-01T10:00:43;100722.50;;;5.47;61.78
35519;BME280;21627;48.216;16.482;2023-03-01T10:03:36;100712.56;;;5.56;63.27
35519;BME280;21627;48.216;16.482;2023-03-01T10:06:20;100714.97;;;5.75;63.08
35519;BME280;21627;48.216;16.482;2023-03-01T10:09:11;100709.34;;;5.85;63.05
35519;BME280;21627;48.216;16.482;2023-03-01T10:11:50;100714.56;;;6.38;62.68
35519;BME280;21627;48.216;16.482;2023-03-01T10:14:58;100707.13;;;6.75;59.86
35519;BME280;21627;48.216;16.482;2023-03-01T10:17:58;100692.81;;;7.13;58.09
35519;BME280;21627;48.216;16.482;2023-03-01T10:23:24;100698.13;;;7.79;55.41
35519;BME280;21627;48.216;16.482;2023-03-01T10:29:10;100693.69;;;8.09;53.85
35519;BME280;21627;48.216;16.482;2023-03-01T10:31:50;100683.50;;;8.13;53.24
35519;BME280;21627;48.216;16.482;2023-03-01T10:34:30;100684.16;;;8.05;53.58
35519;BME280;21627;48.216;16.482;2023-03-01T10:37:21;100682.22;;;8.31;51.96
35519;BME280;21627;48.216;16.482;2023-03-01T10:40:17;100665.34;;;8.42;52.45
35519;BME280;21627;48.216;16.482;2023-03-01T10:42:49;100679.53;;;8.61;51.04
35519;BME280;21627;48.216;16.482;2023-03-01T10:50:46;100660.63;;;9.00;50.43
35519;BME280;21627;48.216;16.482;2023-03-01T10:53:48;100648.84;;;9.13;49.82
35519;BME280;21627;48.216;16.482;2023-03-01T10:56:18;100649.41;;;8.99;50.30
35519;BME280;21627;48.216;16.482;2023-03-01T10:59:04;100637.56;;;9.07;50.98
35519;BME280;21627;48.216;16.482;2023-03-01T11:01:35;100631.03;;;9.25;49.69
35519;BME280;21627;48.216;16.482;2023-03-01T11:04:13;100635.00;;;9.53;49.54
35519;BME280;21627;48.216;16.482;2023-03-01T11:06:41;100634.94;;;9.99;49.39
35519;BME280;21627;48.216;16.482;2023-03-01T11:09:22;100624.88;;;10.17;48.45
35519;BME280;21627;48.216;16.482;2023-03-01T11:12:00;100621.78;;;10.38;47.81
35519;BME280;21627;48.216;16.482;2023-03-01T11:14:37;100618.25;;;10.31;48.54
35519;BME280;21627;48.216;16.482;2023-03-01T11:17:21;100602.81;;;10.36;46.23
35519;BME280;21627;48.216;16.482;2023-03-01T11:20:20;100603.31;;;10.74;46.11
35519;BME280;21627;48.216;16.482;2023-03-01T11:23:08;100604.38;;;10.89;46.44
35519;BME280;21627;48.216;16.482;2023-03-01T11:25:43;100606.38;;;11.13;45.47
35519;BME280;21627;48.216;16.482;2023-03-01T11:28:16;100615.66;;;10.94;45.32
35519;BME280;21627;48.216;16.482;2023-03-01T11:31:09;100602.91;;;11.09;45.74
35519;BME280;21627;48.216;16.482;2023-03-01T11:33:59;100610.91;;;11.34;45.85
35519;BME280;21627;48.216;16.482;2023-03-01T11:39:36;100609.28;;;10.70;45.78
35519;BME280;21627;48.216;16.482;2023-03-01T11:45:23;100605.69;;;10.03;47.28
35519;BME280;21627;48.216;16.482;2023-03-01T11:50:47;100599.94;;;10.80;46.44
35519;BME280;21627;48.216;16.482;2023-03-01T12:00:55;100608.78;;;11.80;43.84
35519;BME280;21627;48.216;16.482;2023-03-01T12:12:24;100605.53;;;11.14;45.56
35519;BME280;21627;48.216;16.482;2023-03-01T12:21:55;100593.88;;;10.78;46.26
35519;BME280;21627;48.216;16.482;2023-03-01T12:25:19;100589.09;;;10.43;45.10
35519;BME280;21627;48.216;16.482;2023-03-01T12:43:17;100557.56;;;10.69;47.94
35519;BME280;21627;48.216;16.482;2023-03-01T12:46:14;100565.22;;;10.63;47.24
35519;BME280;21627;48.216;16.482;2023-03-01T12:49:15;100571.19;;;10.57;48.38
35519;BME280;21627;48.216;16.482;2023-03-01T12:54:40;100561.78;;;10.62;46.24
35519;BME280;21627;48.216;16.482;2023-03-01T12:57:30;100547.97;;;10.58;48.01
35519;BME280;21627;48.216;16.482;2023-03-01T13:00:44;100553.16;;;10.63;47.58
35519;BME280;21627;48.216;16.482;2023-03-01T13:06:17;100552.09;;;11.19;46.08
35519;BME280;21627;48.216;16.482;2023-03-01T13:08:59;100541.38;;;11.77;46.25
35519;BME280;21627;48.216;16.482;2023-03-01T13:11:29;100539.06;;;12.09;45.84
35519;BME280;21627;48.216;16.482;2023-03-01T13:14:42;100543.91;;;11.64;46.12
35519;BME280;21627;48.216;16.482;2023-03-01T13:17:40;100549.63;;;11.33;45.57
35519;BME280;21627;48.216;16.482;2023-03-01T13:20:35;100537.28;;;11.05;48.23
35519;BME280;21627;48.216;16.482;2023-03-01T13:26:16;100533.72;;;10.96;48.90
35519;BME280;21627;48.216;16.482;2023-03-01T13:33:51;100541.28;;;10.77;49.17
35519;BME280;21627;48.216;16.482;2023-03-01T13:39:04;100518.66;;;10.59;49.86
35519;BME280;21627;48.216;16.482;2023-03-01T13:44:35;100519.09;;;11.01;48.63
35519;BME280;21627;48.216;16.482;2023-03-01T13:47:17;100520.00;;;11.03;49.11
35519;BME280;21627;48.216;16.482;2023-03-01T13:50:00;100516.66;;;11.13;49.94
35519;BME280;21627;48.216;16.482;2023-03-01T13:52:48;100512.56;;;11.37;49.74
35519;BME280;21627;48.216;16.482;2023-03-01T13:55:37;100505.78;;;11.51;49.84
35519;BME280;21627;48.216;16.482;2023-03-01T13:58:28;100498.16;;;11.71;48.25
35519;BME280;21627;48.216;16.482;2023-03-01T14:00:58;100497.53;;;12.00;48.11
35519;BME280;21627;48.216;16.482;2023-03-01T14:03:27;100490.75;;;12.29;47.62
35519;BME280;21627;48.216;16.482;2023-03-01T14:08:46;100486.53;;;12.51;46.04
35519;BME280;21627;48.216;16.482;2023-03-01T14:14:21;100486.69;;;13.04;44.68
35519;BME280;21627;48.216;16.482;2023-03-01T14:19:28;100485.81;;;13.00;43.86
35519;BME280;21627;48.216;16.482;2023-03-01T14:22:28;100485.00;;;13.26;42.93
35519;BME280;21627;48.216;16.482;2023-03-01T14:30:49;100477.16;;;13.07;42.96
35519;BME280;21627;48.216;16.482;2023-03-01T14:33:30;100466.84;;;13.39;42.53
35519;BME280;21627;48.216;16.482;2023-03-01T14:38:36;100462.41;;;14.09;42.01
35519;BME280;21627;48.216;16.482;2023-03-01T14:43:41;100437.38;;;13.19;42.08
35519;BME280;21627;48.216;16.482;2023-03-01T14:51:38;100456.91;;;12.02;44.90
35519;BME280;21627;48.216;16.482;2023-03-01T14:55:00;100460.06;;;11.52;45.99
35519;BME280;21627;48.216;16.482;2023-03-01T14:57:26;100457.22;;;11.22;46.74
35519;BME280;21627;48.216;16.482;2023-03-01T15:00:03;100462.19;;;11.02;47.57
35519;BME280;21627;48.216;16.482;2023-03-01T15:02:34;100454.28;;;10.84;48.32
35519;BME280;21627;48.216;16.482;2023-03-01T15:05:04;100461.88;;;10.69;47.99
35519;BME280;21627;48.216;16.482;2023-03-01T15:07:39;100459.13;;;10.55;49.33
35519;BME280;21627;48.216;16.482;2023-03-01T15:10:37;100455.59;;;10.47;50.01
35519;BME280;21627;48.216;16.482;2023-03-01T15:13:34;100453.66;;;10.29;49.63
35519;BME280;21627;48.216;16.482;2023-03-01T15:16:09;100450.06;;;10.21;49.64